createdAt,value
2019-03-29T00:04:56.208Z,12.28
2019-03-29T00:07:48.132Z,12.45
2019-03-29T00:10:32.234Z,15.35
2019-03-29T00:13:16.131Z,11.40
2019-03-29T00:16:07.662Z,11.10
2019-03-29T00:18:53.011Z,10.32
2019-03-29T00:21:44.523Z,9.85
2019-03-29T00:24:17.730Z,11.43
2019-03-29T00:27:09.706Z,12.47
2019-03-29T00:29:54.344Z,13.45
2019-03-29T00:32:45.858Z,10.98
2019-03-29T00:35:30.256Z,12.88
2019-03-29T00:38:22.353Z,11.50
2019-03-29T00:41:26.655Z,11.50
2019-03-29T00:44:18.602Z,12.33
2019-03-29T00:47:04.081Z,10.80
2019-03-29T00:49:56.063Z,11.53
2019-03-29T00:52:40.048Z,9.70
2019-03-29T00:55:31.634Z,12.10
2019-03-29T00:58:15.526Z,13.38
2019-03-29T01:01:07.293Z,12.58
2019-03-29T01:03:51.127Z,14.65
2019-03-29T01:06:42.969Z,12.88
2019-03-29T01:09:27.581Z,10.55
2019-03-29T01:12:11.282Z,11.90
2019-03-29T01:15:03.234Z,12.98
2019-03-29T01:17:49.022Z,10.70
2019-03-29T01:20:40.780Z,14.40
2019-03-29T01:23:24.742Z,12.25
2019-03-29T01:26:16.471Z,11.28
2019-03-29T01:29:01.575Z,11.90
2019-03-29T01:31:53.328Z,13.53
2019-03-29T01:34:37.726Z,16.73
2019-03-29T01:37:21.649Z,10.90
2019-03-29T01:40:52.569Z,13.65
2019-03-29T01:43:36.496Z,11.60
2019-03-29T01:46:28.264Z,13.85
2019-03-29T01:49:12.419Z,13.85
2019-03-29T01:52:23.066Z,15.70
2019-03-29T01:55:07.070Z,15.03
2019-03-29T01:57:59.073Z,11.65
2019-03-29T02:00:51.008Z,12.20
2019-03-29T02:03:42.553Z,15.40
2019-03-29T02:06:26.382Z,12.78
2019-03-29T02:09:10.712Z,15.58
2019-03-29T02:11:54.850Z,14.45
2019-03-29T02:14:47.070Z,11.05
2019-03-29T02:17:31.492Z,15.10
2019-03-29T02:20:23.849Z,14.10
2019-03-29T02:23:17.681Z,12.15
2019-03-29T02:26:09.853Z,12.90
2019-03-29T02:28:54.096Z,14.10
2019-03-29T02:31:42.151Z,15.28
2019-03-29T02:34:25.370Z,16.85
2019-03-29T02:37:16.869Z,14.78
2019-03-29T02:40:02.239Z,16.57
2019-03-29T02:42:55.357Z,17.32
2019-03-29T02:45:39.801Z,12.60
2019-03-29T02:48:31.454Z,13.65
2019-03-29T02:51:15.175Z,12.03
2019-03-29T02:54:06.818Z,12.60
2019-03-29T02:56:50.636Z,13.80
2019-03-29T02:59:42.348Z,14.00
2019-03-29T03:02:26.940Z,13.22
2019-03-29T03:05:18.516Z,12.15
2019-03-29T03:08:02.686Z,14.53
2019-03-29T03:13:37.265Z,15.40
2019-03-29T03:16:28.892Z,14.23
2019-03-29T03:19:12.642Z,13.83
2019-03-29T03:22:04.346Z,15.35
2019-03-29T03:24:48.672Z,10.50
2019-03-29T03:27:40.368Z,13.60
2019-03-29T03:33:29.740Z,15.95
2019-03-29T03:36:15.354Z,12.30
2019-03-29T03:42:52.133Z,10.45
2019-03-29T03:45:36.100Z,11.63
2019-03-29T03:48:27.674Z,15.30
2019-03-29T03:51:11.461Z,16.25
2019-03-29T03:54:03.216Z,12.70
2019-03-29T03:56:47.288Z,15.15
2019-03-29T03:59:31.473Z,17.95
2019-03-29T04:02:23.210Z,16.32
2019-03-29T04:05:07.323Z,16.67
2019-03-29T04:08:18.788Z,16.57
2019-03-29T04:11:02.715Z,16.20
2019-03-29T04:13:47.164Z,14.65
2019-03-29T04:16:38.940Z,13.28
2019-03-29T04:19:23.346Z,15.00
2019-03-29T04:22:07.592Z,15.08
2019-03-29T04:25:18.178Z,15.90
2019-03-29T04:28:02.686Z,11.43
2019-03-29T04:30:54.381Z,15.35
2019-03-29T04:33:38.830Z,16.65
2019-03-29T04:36:30.438Z,14.20
2019-03-29T04:39:14.569Z,14.47
2019-03-29T04:41:58.897Z,19.50
2019-03-29T04:44:41.619Z,22.30
2019-03-29T04:47:33.228Z,19.27
2019-03-29T04:50:17.375Z,16.57
2019-03-29T04:53:09.170Z,18.65
2019-03-29T04:55:53.576Z,14.80
2019-03-29T04:58:45.283Z,19.57
2019-03-29T05:01:29.299Z,21.90
2019-03-29T05:04:21.184Z,20.97
2019-03-29T05:07:06.032Z,19.32
2019-03-29T05:09:50.861Z,16.82
2019-03-29T05:12:34.632Z,19.02
2019-03-29T05:15:26.334Z,21.60
2019-03-29T05:18:10.395Z,19.23
2019-03-29T05:21:02.095Z,19.20
2019-03-29T05:23:46.462Z,22.27
2019-03-29T05:26:38.230Z,23.45
2019-03-29T05:29:11.225Z,22.85
2019-03-29T05:31:44.166Z,22.22
2019-03-29T05:34:27.743Z,17.62
2019-03-29T05:37:19.503Z,19.73
2019-03-29T05:40:05.207Z,23.77
2019-03-29T05:42:58.073Z,18.42
2019-03-29T05:45:42.448Z,16.23
2019-03-29T05:48:26.524Z,24.72
2019-03-29T05:51:19.511Z,19.57
2019-03-29T05:54:03.406Z,18.05
2019-03-29T05:56:55.113Z,18.40
2019-03-29T05:59:39.186Z,19.20
2019-03-29T06:02:30.839Z,18.12
2019-03-29T06:05:14.589Z,18.02
2019-03-29T06:08:06.731Z,17.62
2019-03-29T06:10:51.696Z,18.73
2019-03-29T06:13:36.548Z,19.25
2019-03-29T06:16:09.446Z,15.88
2019-03-29T06:18:54.825Z,20.72
2019-03-29T06:21:46.422Z,20.43
2019-03-29T06:24:30.483Z,15.60
2019-03-29T06:27:14.677Z,16.80
2019-03-29T06:29:47.545Z,17.55
2019-03-29T06:32:22.074Z,18.20
2019-03-29T06:34:55.375Z,21.97
2019-03-29T06:37:41.533Z,20.50
2019-03-29T06:40:33.358Z,15.15
2019-03-29T06:43:06.392Z,17.52
2019-03-29T06:45:47.698Z,18.95
2019-03-29T06:48:51.769Z,19.15
2019-03-29T06:51:35.523Z,23.00
2019-03-29T06:54:27.150Z,17.50
2019-03-29T06:57:12.159Z,20.50
2019-03-29T07:00:03.972Z,20.45
2019-03-29T07:02:49.333Z,19.90
2019-03-29T07:05:40.902Z,20.05
2019-03-29T07:08:27.048Z,19.42
2019-03-29T07:11:18.768Z,20.30
2019-03-29T07:14:04.599Z,21.70
2019-03-29T07:16:49.290Z,19.45
2019-03-29T07:19:41.010Z,21.52
2019-03-29T07:22:25.318Z,21.12
2019-03-29T07:25:16.993Z,21.57
2019-03-29T07:28:01.541Z,25.02
2019-03-29T07:30:54.228Z,26.17
2019-03-29T07:33:38.426Z,19.85
2019-03-29T07:36:22.162Z,20.72
2019-03-29T07:39:14.025Z,25.85
2019-03-29T07:41:59.052Z,23.97
2019-03-29T07:44:50.976Z,21.00
2019-03-29T07:47:35.780Z,22.58
2019-03-29T07:50:27.431Z,25.02
2019-03-29T07:53:00.405Z,24.40
2019-03-29T07:55:52.218Z,26.12
2019-03-29T07:58:35.929Z,26.30
2019-03-29T08:01:27.587Z,22.45
2019-03-29T08:04:11.853Z,22.55
2019-03-29T08:07:03.598Z,20.72
2019-03-29T08:09:47.922Z,21.65
2019-03-29T08:12:40.691Z,24.75
2019-03-29T08:15:43.877Z,27.30
2019-03-29T08:18:35.625Z,22.05
2019-03-29T08:21:20.011Z,21.90
2019-03-29T08:24:11.992Z,20.62
2019-03-29T08:26:54.795Z,24.23
2019-03-29T08:29:46.777Z,21.85
2019-03-29T08:32:31.298Z,21.45
2019-03-29T08:35:23.032Z,26.35
2019-03-29T08:38:07.383Z,19.82
2019-03-29T08:40:51.378Z,17.23
2019-03-29T08:43:35.851Z,18.00
2019-03-29T08:46:19.788Z,18.60
2019-03-29T08:49:12.074Z,25.57
2019-03-29T08:51:56.709Z,18.77
2019-03-29T08:54:51.359Z,17.50
2019-03-29T08:57:41.337Z,17.40
2019-03-29T09:04:05.119Z,20.02
2019-03-29T09:07:01.793Z,16.45
2019-03-29T09:09:53.466Z,17.33
2019-03-29T09:12:37.750Z,19.90
2019-03-29T09:15:29.593Z,19.65
2019-03-29T09:18:13.892Z,20.57
2019-03-29T09:21:05.573Z,16.50
2019-03-29T09:23:38.474Z,15.80
2019-03-29T09:26:30.213Z,18.20
2019-03-29T09:29:15.031Z,15.28
2019-03-29T09:32:06.667Z,15.20
2019-03-29T09:34:50.427Z,14.73
2019-03-29T09:37:34.820Z,14.00
2019-03-29T09:40:26.573Z,16.85
2019-03-29T09:43:10.254Z,16.77
2019-03-29T09:45:43.193Z,14.23
2019-03-29T09:48:35.741Z,15.80
2019-03-29T09:51:09.107Z,15.25
2019-03-29T09:54:00.648Z,12.73
2019-03-29T09:56:48.238Z,14.38
2019-03-29T09:59:38.325Z,11.95
2019-03-29T10:02:22.187Z,14.63
2019-03-29T10:05:14.149Z,13.05
2019-03-29T10:07:58.495Z,13.70
2019-03-29T10:10:50.171Z,17.63
2019-03-29T10:13:34.326Z,13.38
2019-03-29T10:16:26.095Z,15.85
2019-03-29T10:19:12.490Z,11.43
2019-03-29T10:21:56.127Z,11.90
2019-03-29T10:24:40.508Z,10.72
2019-03-29T10:27:45.012Z,9.70
2019-03-29T10:30:45.978Z,10.50
2019-03-29T10:33:36.658Z,13.03
2019-03-29T10:36:21.684Z,13.83
2019-03-29T10:39:14.650Z,11.45
2019-03-29T10:41:58.419Z,11.30
2019-03-29T10:44:50.104Z,12.40
2019-03-29T10:47:43.772Z,15.45
2019-03-29T10:50:27.634Z,8.50
2019-03-29T10:53:12.131Z,13.60
2019-03-29T10:55:45.057Z,9.27
2019-03-29T10:58:17.897Z,12.78
2019-03-29T11:00:51.110Z,11.63
2019-03-29T11:03:35.331Z,10.00
2019-03-29T11:06:26.945Z,10.50
2019-03-29T11:09:11.455Z,9.83
2019-03-29T11:12:03.152Z,10.10
2019-03-29T11:14:47.438Z,9.03
2019-03-29T11:17:39.185Z,11.03
2019-03-29T11:20:23.450Z,11.12
2019-03-29T11:23:07.339Z,9.00
2019-03-29T11:25:59.641Z,7.60
2019-03-29T11:28:43.972Z,11.38
2019-03-29T11:31:35.712Z,8.85
2019-03-29T11:34:22.393Z,7.08
2019-03-29T11:37:14.162Z,7.00
2019-03-29T11:39:57.886Z,7.00
2019-03-29T11:43:08.491Z,7.78
2019-03-29T11:45:52.403Z,7.95
2019-03-29T11:48:44.020Z,6.90
2019-03-29T11:51:19.592Z,6.55
2019-03-29T11:54:29.743Z,6.67
2019-03-29T11:57:13.757Z,7.55
2019-03-29T11:59:57.343Z,7.05
2019-03-29T12:02:52.393Z,5.75
2019-03-29T12:05:38.245Z,6.55
2019-03-29T12:08:11.301Z,5.90
2019-03-29T12:10:55.392Z,5.25
2019-03-29T12:13:47.087Z,5.28
2019-03-29T12:16:31.066Z,5.65
2019-03-29T12:19:14.998Z,5.03
2019-03-29T12:22:06.649Z,5.67
2019-03-29T12:24:55.099Z,7.22
2019-03-29T12:27:46.785Z,6.00
2019-03-29T12:30:32.289Z,8.00
2019-03-29T12:33:24.226Z,5.47
2019-03-29T12:36:09.724Z,5.30
2019-03-29T12:39:01.520Z,5.40
2019-03-29T12:41:48.660Z,5.90
2019-03-29T12:45:04.678Z,5.70
2019-03-29T12:47:49.826Z,4.70
2019-03-29T12:50:41.421Z,5.83
2019-03-29T12:53:25.863Z,6.47
2019-03-29T12:56:17.887Z,6.40
2019-03-29T12:59:03.747Z,7.00
2019-03-29T13:01:47.850Z,8.80
2019-03-29T13:04:39.663Z,7.25
2019-03-29T13:07:24.017Z,5.53
2019-03-29T13:10:15.817Z,6.70
2019-03-29T13:13:00.781Z,6.55
2019-03-29T13:15:52.848Z,8.13
2019-03-29T13:18:37.236Z,6.93
2019-03-29T13:21:21.295Z,6.97
2019-03-29T13:24:05.368Z,6.90
2019-03-29T13:26:57.292Z,5.83
2019-03-29T13:29:42.082Z,7.90
2019-03-29T13:32:34.009Z,6.75
2019-03-29T13:35:18.162Z,7.03
2019-03-29T13:38:10.898Z,6.28
2019-03-29T13:40:54.886Z,9.05
2019-03-29T13:43:46.617Z,8.20
2019-03-29T13:46:31.134Z,6.55
2019-03-29T13:49:14.768Z,7.08
2019-03-29T13:52:06.505Z,7.50
2019-03-29T13:54:54.978Z,13.40
2019-03-29T13:57:46.731Z,7.87
2019-03-29T14:00:30.863Z,7.45
2019-03-29T14:03:22.570Z,10.25
2019-03-29T14:06:06.854Z,10.55
2019-03-29T14:08:58.488Z,9.10
2019-03-29T14:11:42.082Z,8.00
2019-03-29T14:14:14.814Z,8.60
2019-03-29T14:16:47.884Z,7.42
2019-03-29T14:19:39.638Z,9.18
2019-03-29T14:22:23.602Z,7.90
2019-03-29T14:25:15.217Z,8.13
2019-03-29T14:27:59.557Z,8.55
2019-03-29T14:30:43.567Z,7.83
2019-03-29T14:33:27.399Z,9.43
2019-03-29T14:36:19.088Z,8.80
2019-03-29T14:39:03.389Z,12.80
2019-03-29T14:41:47.876Z,9.10
2019-03-29T14:44:31.608Z,9.63
2019-03-29T14:47:23.245Z,10.32
2019-03-29T14:50:07.411Z,8.73
2019-03-29T14:52:59.182Z,11.05
2019-03-29T14:55:41.888Z,9.60
2019-03-29T14:58:33.910Z,10.55
2019-03-29T15:01:18.570Z,9.30
2019-03-29T15:04:10.183Z,12.90
2019-03-29T15:06:54.596Z,12.82
2019-03-29T15:09:46.213Z,10.28
2019-03-29T15:12:29.774Z,11.33
2019-03-29T15:15:21.528Z,10.38
2019-03-29T15:18:05.421Z,12.50
2019-03-29T15:20:53.916Z,10.23
2019-03-29T15:23:35.530Z,11.73
2019-03-29T15:26:27.231Z,11.05
2019-03-29T15:29:11.720Z,10.78
2019-03-29T15:31:56.405Z,8.58
2019-03-29T15:34:29.481Z,9.88
2019-03-29T15:37:02.120Z,11.75
2019-03-29T15:39:53.785Z,10.13
2019-03-29T15:42:37.417Z,10.35
2019-03-29T15:45:23.754Z,11.70
2019-03-29T15:48:15.534Z,10.85
2019-03-29T15:51:00.680Z,14.83
2019-03-29T15:53:52.395Z,12.60
2019-03-29T15:56:36.806Z,12.05
2019-03-29T15:59:28.675Z,11.03
2019-03-29T16:02:12.708Z,10.35
2019-03-29T16:05:04.595Z,10.23
2019-03-29T16:07:48.830Z,8.98
2019-03-29T16:10:41.376Z,10.48
2019-03-29T16:13:26.194Z,10.18
2019-03-29T16:16:17.991Z,11.80
2019-03-29T16:19:02.049Z,12.65
2019-03-29T16:21:53.988Z,9.98
2019-03-29T16:24:38.407Z,12.33
2019-03-29T16:27:30.070Z,11.97
2019-03-29T16:30:14.703Z,10.23
2019-03-29T16:33:06.446Z,10.10
2019-03-29T16:35:50.167Z,10.23
2019-03-29T16:38:41.967Z,11.05
2019-03-29T16:41:27.339Z,10.68
2019-03-29T16:44:18.876Z,11.15
2019-03-29T16:47:02.571Z,10.53
2019-03-29T16:49:54.211Z,9.90
2019-03-29T16:52:37.831Z,11.12
2019-03-29T16:55:29.446Z,11.85
2019-03-29T16:58:13.681Z,9.38
2019-03-29T17:01:05.274Z,11.73
2019-03-29T17:03:49.649Z,15.75
2019-03-29T17:06:41.252Z,12.63
2019-03-29T17:09:25.695Z,13.32
2019-03-29T17:12:17.387Z,13.10
2019-03-29T17:15:01.662Z,11.53
2019-03-29T17:17:46.574Z,12.20
2019-03-29T17:20:38.198Z,10.78
2019-03-29T17:23:22.303Z,11.80
2019-03-29T17:26:06.362Z,12.50
2019-03-29T17:28:58.295Z,11.10
2019-03-29T17:31:42.626Z,10.68
2019-03-29T17:34:34.253Z,12.78
2019-03-29T17:37:16.968Z,14.33
2019-03-29T17:40:00.866Z,14.05
2019-03-29T17:42:52.626Z,11.28
2019-03-29T17:45:37.172Z,15.30
2019-03-29T17:48:47.604Z,10.63
2019-03-29T17:51:31.433Z,11.25
2019-03-29T17:54:23.027Z,15.63
2019-03-29T17:57:07.351Z,19.15
2019-03-29T17:59:59.031Z,21.93
2019-03-29T18:02:43.365Z,22.80
2019-03-29T18:05:35.280Z,21.20
2019-03-29T18:08:19.479Z,25.02
2019-03-29T18:11:11.104Z,15.45
2019-03-29T18:13:55.409Z,17.25
2019-03-29T18:16:46.937Z,13.93
2019-03-29T18:19:30.729Z,15.00
2019-03-29T18:22:22.345Z,17.65
2019-03-29T18:24:55.148Z,20.85
2019-03-29T18:27:46.990Z,21.30
2019-03-29T18:30:42.244Z,17.62
2019-03-29T18:33:26.298Z,28.90
2019-03-29T18:36:18.103Z,24.18
2019-03-29T18:39:01.737Z,23.62
2019-03-29T18:41:47.012Z,18.30
2019-03-29T18:44:38.623Z,17.30
2019-03-29T18:47:22.376Z,19.92
2019-03-29T18:50:06.143Z,16.02
2019-03-29T18:52:57.761Z,17.32
2019-03-29T18:55:41.837Z,16.07
2019-03-29T18:58:27.116Z,15.00
2019-03-29T19:01:18.790Z,18.95
2019-03-29T19:04:02.495Z,16.52
2019-03-29T19:06:54.141Z,14.45
2019-03-29T19:09:38.327Z,18.07
2019-03-29T19:12:29.944Z,20.85
2019-03-29T19:15:13.835Z,18.25
2019-03-29T19:18:05.693Z,19.90
2019-03-29T19:20:49.498Z,18.65
2019-03-29T19:23:41.271Z,17.98
2019-03-29T19:26:25.469Z,29.35
2019-03-29T19:29:17.181Z,19.55
2019-03-29T19:32:02.732Z,14.45
2019-03-29T19:34:54.652Z,24.25
2019-03-29T19:37:27.567Z,16.52
2019-03-29T19:40:19.325Z,18.10
2019-03-29T19:43:03.074Z,18.82
2019-03-29T19:45:54.859Z,17.15
2019-03-29T19:48:40.065Z,15.43
2019-03-29T19:51:31.710Z,20.55
2019-03-29T19:54:16.121Z,17.67
2019-03-29T19:57:07.807Z,17.10
2019-03-29T19:59:52.012Z,17.77
2019-03-29T20:02:43.762Z,20.08
2019-03-29T20:05:28.417Z,19.50
2019-03-29T20:08:40.468Z,17.80
2019-03-29T20:11:24.581Z,20.85
2019-03-29T20:14:08.479Z,18.77
2019-03-29T20:16:55.245Z,21.30
2019-03-29T20:20:05.192Z,21.52
2019-03-29T20:22:50.716Z,18.30
2019-03-29T20:25:35.239Z,19.60
2019-03-29T20:28:26.866Z,19.00
2019-03-29T20:31:10.899Z,20.60
2019-03-29T20:34:02.823Z,16.47
2019-03-29T20:36:47.287Z,20.97
2019-03-29T20:39:39.114Z,19.23
2019-03-29T20:42:24.897Z,15.75
2019-03-29T20:48:39.541Z,17.42
2019-03-29T20:51:23.815Z,16.42
2019-03-29T20:54:15.484Z,25.75
2019-03-29T20:56:59.450Z,18.42
2019-03-29T20:59:32.274Z,19.48
2019-03-29T21:02:16.958Z,21.33
2019-03-29T21:05:08.745Z,21.50
2019-03-29T21:07:55.002Z,23.05
2019-03-29T21:10:39.038Z,17.80
2019-03-29T21:13:30.658Z,20.27
2019-03-29T21:16:14.743Z,18.60
2019-03-29T21:19:06.764Z,19.73
2019-03-29T21:21:39.587Z,18.80
2019-03-29T21:24:31.312Z,20.08
2019-03-29T21:27:16.480Z,26.90
2019-03-29T21:30:47.790Z,20.13
2019-03-29T21:33:32.163Z,18.10
2019-03-29T21:36:23.867Z,19.95
2019-03-29T21:39:12.766Z,19.82
2019-03-29T21:42:04.679Z,19.85
2019-03-29T21:44:48.490Z,21.97
2019-03-29T21:47:40.086Z,20.50
2019-03-29T21:50:24.080Z,21.60
2019-03-29T21:53:16.828Z,22.50
2019-03-29T21:55:59.423Z,22.07
2019-03-29T21:58:51.035Z,23.62
2019-03-29T22:01:35.466Z,26.02
2019-03-29T22:04:27.186Z,22.30
2019-03-29T22:07:11.553Z,31.15
2019-03-29T22:10:03.246Z,31.82
2019-03-29T22:12:47.250Z,27.48
2019-03-29T22:15:38.949Z,26.48
2019-03-29T22:18:37.818Z,31.57
2019-03-29T22:21:35.237Z,25.45
2019-03-29T22:24:27.185Z,31.25
2019-03-29T22:27:10.912Z,31.27
2019-03-29T22:30:02.542Z,32.30
2019-03-29T22:32:47.849Z,29.92
2019-03-29T22:35:39.744Z,27.15
2019-03-29T22:38:23.536Z,29.03
2019-03-29T22:41:09.183Z,31.40
2019-03-29T22:44:00.999Z,35.55
2019-03-29T22:46:45.276Z,29.32
2019-03-29T22:49:37.092Z,27.55
2019-03-29T22:52:21.756Z,29.77
2019-03-29T22:55:13.448Z,33.25
2019-03-29T22:57:57.909Z,33.40
2019-03-29T23:04:13.132Z,34.25
2019-03-29T23:06:56.898Z,26.90
2019-03-29T23:09:48.473Z,27.70
2019-03-29T23:12:32.631Z,31.12
2019-03-29T23:15:25.167Z,29.52
2019-03-29T23:18:09.453Z,26.62
2019-03-29T23:21:01.039Z,22.20
2019-03-29T23:23:45.638Z,26.95
2019-03-29T23:26:29.755Z,29.02
2019-03-29T23:29:14.533Z,26.75
2019-03-29T23:31:58.818Z,26.23
2019-03-29T23:34:50.501Z,24.82
2019-03-29T23:37:34.724Z,30.48
2019-03-29T23:40:26.345Z,27.65
2019-03-29T23:43:10.791Z,30.30
2019-03-29T23:46:02.464Z,41.90
2019-03-29T23:48:46.270Z,43.70
2019-03-29T23:51:31.115Z,39.05
2019-03-29T23:54:22.804Z,36.10
2019-03-29T23:57:06.697Z,33.20
